createdAt,value
2024-02-09T00:02:22.075Z,17.83
2024-02-09T00:04:52.126Z,19.52
2024-02-09T00:07:23.015Z,24.48
2024-02-09T00:09:52.047Z,24.95
2024-02-09T00:12:22.439Z,21.58
2024-02-09T00:14:51.304Z,21.70
2024-02-09T00:17:20.494Z,19.80
2024-02-09T00:19:49.427Z,22.35
2024-02-09T00:24:48.454Z,29.58
2024-02-09T00:27:17.804Z,23.65
2024-02-09T00:29:46.631Z,22.13
2024-02-09T00:32:16.226Z,21.75
2024-02-09T00:34:49.171Z,27.33
2024-02-09T00:37:23.170Z,21.60
2024-02-09T00:39:52.308Z,18.45
2024-02-09T00:42:22.219Z,19.73
2024-02-09T00:44:51.833Z,22.15
2024-02-09T00:47:23.721Z,17.35
2024-02-09T00:49:54.927Z,22.42
2024-02-09T00:52:26.583Z,20.35
2024-02-09T00:54:55.296Z,23.65
2024-02-09T00:57:26.416Z,23.80
2024-02-09T00:59:57.997Z,26.65
2024-02-09T01:02:27.632Z,22.70
2024-02-09T01:04:57.836Z,19.40
2024-02-09T01:07:29.231Z,18.75
2024-02-09T01:10:00.065Z,16.73
2024-02-09T01:12:46.883Z,25.88
2024-02-09T01:15:33.039Z,19.05
2024-02-09T01:18:20.107Z,23.27
2024-02-09T01:21:06.010Z,18.92
2024-02-09T01:23:53.932Z,27.55
2024-02-09T01:26:39.983Z,31.02
2024-02-09T01:29:26.715Z,18.45
2024-02-09T01:32:12.896Z,24.45
2024-02-09T01:34:59.238Z,18.88
2024-02-09T01:37:45.161Z,21.20
2024-02-09T01:40:35.790Z,18.48
2024-02-09T01:43:24.198Z,21.08
2024-02-09T01:46:13.392Z,15.35
2024-02-09T01:49:02.746Z,22.58
2024-02-09T01:51:51.480Z,24.73
2024-02-09T01:54:38.102Z,20.75
2024-02-09T01:57:27.890Z,24.67
2024-02-09T02:03:01.808Z,21.25
2024-02-09T02:05:48.433Z,26.33
2024-02-09T02:08:35.050Z,38.00
2024-02-09T02:11:20.690Z,22.48
2024-02-09T02:14:08.649Z,21.30
2024-02-09T02:16:54.071Z,25.45
2024-02-09T02:19:40.413Z,18.30
2024-02-09T02:22:33.201Z,19.65
2024-02-09T02:25:23.722Z,15.77
2024-02-09T02:28:09.914Z,21.13
2024-02-09T02:30:58.609Z,17.83
2024-02-09T02:33:44.823Z,19.55
2024-02-09T02:36:31.393Z,20.02
2024-02-09T02:39:18.252Z,15.15
2024-02-09T02:41:46.056Z,27.00
2024-02-09T02:44:13.506Z,20.13
2024-02-09T02:46:47.124Z,25.08
2024-02-09T02:49:33.656Z,26.85
2024-02-09T02:52:20.815Z,23.95
2024-02-09T02:55:06.665Z,25.95
2024-02-09T02:57:52.830Z,24.75
2024-02-09T03:00:38.852Z,18.58
2024-02-09T03:03:26.804Z,24.38
2024-02-09T03:05:55.450Z,16.48
2024-02-09T03:08:45.673Z,19.50
2024-02-09T03:11:13.257Z,19.38
2024-02-09T03:13:44.172Z,20.48
2024-02-09T03:16:12.974Z,23.45
2024-02-09T03:21:27.171Z,18.83
2024-02-09T03:23:57.891Z,22.63
2024-02-09T03:26:26.391Z,19.40
2024-02-09T03:28:56.800Z,19.25
2024-02-09T03:39:51.073Z,35.63
2024-02-09T03:42:21.967Z,31.00
2024-02-09T03:44:51.118Z,36.03
2024-02-09T03:47:21.333Z,32.80
2024-02-09T03:49:56.476Z,25.63
2024-02-09T03:52:26.476Z,19.85
2024-02-09T03:54:57.746Z,20.10
2024-02-09T03:57:28.563Z,24.48
2024-02-09T03:59:59.629Z,21.65
2024-02-09T04:02:29.516Z,26.83
2024-02-09T04:07:27.952Z,20.55
2024-02-09T04:10:25.025Z,20.85
2024-02-09T04:12:47.213Z,20.50
2024-02-09T04:15:15.807Z,23.27
2024-02-09T04:20:15.665Z,16.95
2024-02-09T04:22:44.759Z,15.45
2024-02-09T04:25:16.737Z,26.27
2024-02-09T04:27:45.865Z,15.20
2024-02-09T04:30:17.329Z,21.63
2024-02-09T04:32:46.452Z,28.23
2024-02-09T04:35:15.957Z,36.55
2024-02-09T04:37:45.550Z,26.83
2024-02-09T04:40:16.194Z,31.63
2024-02-09T04:42:45.006Z,29.38
2024-02-09T04:45:13.670Z,25.05
2024-02-09T04:47:43.038Z,35.42
2024-02-09T04:50:12.893Z,39.55
2024-02-09T04:52:41.946Z,36.13
2024-02-09T04:55:12.440Z,36.65
2024-02-09T04:57:44.407Z,41.50
2024-02-09T05:00:14.315Z,34.05
2024-02-09T05:02:46.936Z,32.45
2024-02-09T05:05:14.759Z,35.17
2024-02-09T05:07:44.241Z,30.33
2024-02-09T05:10:13.966Z,25.15
2024-02-09T05:12:44.510Z,28.55
2024-02-09T05:15:13.748Z,20.60
2024-02-09T05:17:43.041Z,19.40
2024-02-09T05:20:15.236Z,26.70
2024-02-09T05:22:48.333Z,25.58
2024-02-09T05:25:17.249Z,25.80
2024-02-09T05:30:18.838Z,25.08
2024-02-09T05:32:51.044Z,22.88
2024-02-09T05:35:22.150Z,21.98
2024-02-09T05:37:51.188Z,24.73
2024-02-09T05:40:21.263Z,20.15
2024-02-09T05:42:51.998Z,27.92
2024-02-09T05:45:20.703Z,32.10
2024-02-09T05:47:50.256Z,23.83
2024-02-09T05:53:02.629Z,23.45
2024-02-09T05:55:31.258Z,27.58
2024-02-09T05:58:03.846Z,22.27
2024-02-09T06:00:33.031Z,21.55
2024-02-09T06:03:03.949Z,35.83
2024-02-09T06:05:33.791Z,30.65
2024-02-09T06:08:03.273Z,33.15
2024-02-09T06:10:32.116Z,29.35
2024-02-09T06:13:02.755Z,25.50
2024-02-09T06:15:32.937Z,24.77
2024-02-09T06:18:04.197Z,23.70
2024-02-09T06:20:34.493Z,29.55
2024-02-09T06:23:06.279Z,24.42
2024-02-09T06:25:35.363Z,26.45
2024-02-09T06:28:06.372Z,25.77
2024-02-09T06:30:34.849Z,30.58
2024-02-09T06:33:05.074Z,26.08
2024-02-09T06:35:34.945Z,26.40
2024-02-09T06:38:05.176Z,26.30
2024-02-09T06:40:33.973Z,30.48
2024-02-09T06:43:02.963Z,32.55
2024-02-09T06:45:36.925Z,32.97
2024-02-09T06:48:07.233Z,32.78
2024-02-09T06:50:37.957Z,37.22
2024-02-09T06:53:08.448Z,38.33
2024-02-09T06:55:39.109Z,49.95
2024-02-09T06:58:08.551Z,47.60
2024-02-09T07:00:43.028Z,47.70
2024-02-09T07:03:17.301Z,42.65
2024-02-09T07:05:47.211Z,44.70
2024-02-09T07:08:27.993Z,38.92
2024-02-09T07:10:56.875Z,35.22
2024-02-09T07:15:55.843Z,43.23
2024-02-09T07:18:25.058Z,40.75
2024-02-09T07:20:53.543Z,35.47
2024-02-09T07:23:22.383Z,30.88
2024-02-09T07:25:51.090Z,42.63
2024-02-09T07:28:20.143Z,46.92
2024-02-09T07:30:48.705Z,49.08
2024-02-09T07:33:19.853Z,53.50
2024-02-09T07:35:48.481Z,54.33
2024-02-09T07:38:17.762Z,77.35
2024-02-09T07:40:46.432Z,71.25
2024-02-09T07:45:46.794Z,70.30
2024-02-09T07:48:15.868Z,77.00
2024-02-09T07:50:46.080Z,85.93
2024-02-09T07:53:16.995Z,63.20
2024-02-09T07:55:45.535Z,76.65
2024-02-09T07:58:14.293Z,79.45
2024-02-09T08:00:43.116Z,88.38
2024-02-09T08:03:13.302Z,81.68
2024-02-09T08:05:42.457Z,92.43
2024-02-09T08:10:41.684Z,85.15
2024-02-09T08:18:10.446Z,65.60
2024-02-09T08:20:39.100Z,60.22
2024-02-09T08:23:08.259Z,53.17
2024-02-09T08:25:38.416Z,61.25
2024-02-09T08:28:07.657Z,69.07
2024-02-09T08:30:36.663Z,58.70
2024-02-09T08:33:06.256Z,63.33
2024-02-09T08:35:34.942Z,65.55
2024-02-09T08:38:03.768Z,54.45
2024-02-09T08:40:32.337Z,59.60
2024-02-09T08:43:02.973Z,47.33
2024-02-09T08:45:31.735Z,41.25
2024-02-09T08:48:00.539Z,52.83
2024-02-09T08:50:29.257Z,39.72
2024-02-09T08:55:28.391Z,43.40
2024-02-09T08:57:57.307Z,40.72
2024-02-09T09:00:27.369Z,39.90
2024-02-09T09:02:56.536Z,40.40
2024-02-09T09:05:26.004Z,41.25
2024-02-09T09:07:55.212Z,44.60
2024-02-09T09:10:24.038Z,56.60
2024-02-09T09:15:22.041Z,43.95
2024-02-09T09:17:53.158Z,38.63
2024-02-09T09:20:22.038Z,42.53
2024-02-09T09:22:51.180Z,41.53
2024-02-09T09:25:19.792Z,40.60
2024-02-09T09:27:49.550Z,35.17
2024-02-09T09:30:19.097Z,41.03
2024-02-09T09:32:48.024Z,45.58
2024-02-09T09:35:18.255Z,37.25
2024-02-09T09:37:47.482Z,39.42
2024-02-09T09:40:17.851Z,49.95
2024-02-09T09:42:47.118Z,48.42
2024-02-09T09:45:20.251Z,39.45
2024-02-09T09:47:49.453Z,42.92
2024-02-09T09:50:22.191Z,41.50
2024-02-09T09:52:56.665Z,46.08
2024-02-09T09:55:29.205Z,44.45
2024-02-09T09:57:58.808Z,50.10
2024-02-09T10:00:29.144Z,46.67
2024-02-09T10:03:00.603Z,46.78
2024-02-09T10:05:32.393Z,45.58
2024-02-09T10:08:03.049Z,47.30
2024-02-09T10:10:32.365Z,50.15
2024-02-09T10:13:13.242Z,50.63
2024-02-09T10:15:43.411Z,43.28
2024-02-09T10:18:15.075Z,47.58
2024-02-09T10:20:46.620Z,47.85
2024-02-09T10:23:15.985Z,47.50
2024-02-09T10:25:45.301Z,49.50
2024-02-09T10:28:15.303Z,51.17
2024-02-09T10:33:14.715Z,49.70
2024-02-09T10:35:45.227Z,42.95
2024-02-09T10:38:15.133Z,48.70
2024-02-09T10:40:44.542Z,55.25
2024-02-09T10:43:16.515Z,49.70
2024-02-09T10:45:46.168Z,55.60
2024-02-09T10:48:17.657Z,54.03
2024-02-09T10:50:48.569Z,59.33
2024-02-09T10:53:26.166Z,56.25
2024-02-09T10:56:04.594Z,52.67
2024-02-09T10:58:38.521Z,56.10
2024-02-09T11:01:08.504Z,57.85
2024-02-09T11:03:44.298Z,55.75
2024-02-09T11:06:16.119Z,62.17
2024-02-09T11:08:48.612Z,61.15
2024-02-09T11:11:17.405Z,63.10
2024-02-09T11:13:47.078Z,51.35
2024-02-09T11:16:28.017Z,59.30
2024-02-09T11:18:57.242Z,59.00
2024-02-09T11:21:28.409Z,50.53
2024-02-09T11:24:00.048Z,53.03
2024-02-09T11:26:38.335Z,55.38
2024-02-09T11:29:08.267Z,60.80
2024-02-09T11:31:38.636Z,60.20
2024-02-09T11:34:08.503Z,56.17
2024-02-09T11:36:39.054Z,61.50
2024-02-09T11:39:12.081Z,51.72
2024-02-09T11:41:43.580Z,53.42
2024-02-09T11:44:14.032Z,51.45
2024-02-09T11:46:46.311Z,51.47
2024-02-09T11:49:16.462Z,41.92
2024-02-09T11:51:53.373Z,47.22
2024-02-09T11:54:24.234Z,48.03
2024-02-09T11:57:04.501Z,50.28
2024-02-09T11:59:35.990Z,57.65
2024-02-09T12:02:05.238Z,52.15
2024-02-09T12:04:35.069Z,53.38
2024-02-09T12:09:37.902Z,52.13
2024-02-09T12:12:10.224Z,43.72
2024-02-09T12:14:39.962Z,45.78
2024-02-09T12:17:10.564Z,43.92
2024-02-09T12:19:43.679Z,50.75
2024-02-09T12:22:15.649Z,45.13
2024-02-09T12:24:46.855Z,46.92
2024-02-09T12:27:16.788Z,43.50
2024-02-09T12:29:46.542Z,50.85
2024-02-09T12:32:19.479Z,47.95
2024-02-09T12:34:52.727Z,46.30
2024-02-09T12:37:28.363Z,48.83
2024-02-09T12:40:00.639Z,51.35
2024-02-09T12:42:34.528Z,45.13
2024-02-09T12:45:07.541Z,49.25
2024-02-09T12:47:40.455Z,57.42
2024-02-09T12:50:11.521Z,49.13
2024-02-09T12:52:45.666Z,52.75
2024-02-09T12:55:16.897Z,52.03
2024-02-09T12:57:47.712Z,53.92
2024-02-09T13:00:17.602Z,53.45
2024-02-09T13:05:17.676Z,45.58
2024-02-09T13:07:50.084Z,48.25
2024-02-09T13:10:22.550Z,53.53
2024-02-09T13:12:55.343Z,53.05
2024-02-09T13:15:30.469Z,55.92
2024-02-09T13:18:00.104Z,55.00
2024-02-09T13:20:31.226Z,47.88
2024-02-09T13:23:03.435Z,53.15
2024-02-09T13:25:36.046Z,50.88
2024-02-09T13:28:05.741Z,54.90
2024-02-09T13:30:38.561Z,61.58
2024-02-09T13:33:08.792Z,54.00
2024-02-09T13:35:39.423Z,55.50
2024-02-09T13:38:12.857Z,62.22
2024-02-09T13:40:44.320Z,53.65
2024-02-09T13:43:16.145Z,52.50
2024-02-09T13:45:48.332Z,50.65
2024-02-09T13:48:26.430Z,49.63
2024-02-09T13:51:01.211Z,61.80
2024-02-09T13:53:32.008Z,60.60
2024-02-09T13:56:02.700Z,65.60
2024-02-09T13:58:34.478Z,54.28
2024-02-09T14:01:05.309Z,53.08
2024-02-09T14:03:36.555Z,56.35
2024-02-09T14:06:07.998Z,66.20
2024-02-09T14:08:40.409Z,52.90
2024-02-09T14:11:10.313Z,52.95
2024-02-09T14:13:41.764Z,47.78
2024-02-09T14:16:14.571Z,37.38
2024-02-09T14:18:47.841Z,40.03
2024-02-09T14:21:18.436Z,41.95
2024-02-09T14:23:48.968Z,41.80
2024-02-09T14:26:20.949Z,37.80
2024-02-09T14:28:52.902Z,38.70
2024-02-09T14:31:24.517Z,46.90
2024-02-09T14:33:55.349Z,37.35
2024-02-09T14:36:28.915Z,42.90
2024-02-09T14:39:01.785Z,41.85
2024-02-09T14:41:31.512Z,39.63
2024-02-09T14:44:02.306Z,37.17
2024-02-09T14:46:36.089Z,44.33
2024-02-09T14:49:05.368Z,34.13
2024-02-09T14:51:37.524Z,37.40
2024-02-09T14:54:10.804Z,35.10
2024-02-09T14:56:48.660Z,30.60
2024-02-09T14:59:27.589Z,37.60
2024-02-09T15:01:59.038Z,33.38
2024-02-09T15:04:32.493Z,35.67
2024-02-09T15:07:02.738Z,31.60
2024-02-09T15:09:38.590Z,38.55
2024-02-09T15:12:09.411Z,37.17
2024-02-09T15:14:38.850Z,35.97
2024-02-09T15:17:11.171Z,37.05
2024-02-09T15:20:01.042Z,32.20
2024-02-09T15:22:31.510Z,33.70
2024-02-09T15:25:07.882Z,39.97
2024-02-09T15:27:51.219Z,37.67
2024-02-09T15:30:21.651Z,35.22
2024-02-09T15:32:51.558Z,40.50
2024-02-09T15:35:22.489Z,35.08
2024-02-09T15:37:55.973Z,34.50
2024-02-09T15:40:29.093Z,36.30
2024-02-09T15:42:58.625Z,31.02
2024-02-09T15:45:28.969Z,34.63
2024-02-09T15:47:58.532Z,35.63
2024-02-09T15:50:29.352Z,34.53
2024-02-09T15:53:00.605Z,28.00
2024-02-09T15:55:39.527Z,30.83
2024-02-09T15:58:11.208Z,31.27
2024-02-09T16:00:41.786Z,24.08
2024-02-09T16:03:12.900Z,31.77
2024-02-09T16:05:45.469Z,40.28
2024-02-09T16:08:20.343Z,31.02
2024-02-09T16:10:53.072Z,33.03
2024-02-09T16:13:22.459Z,33.67
2024-02-09T16:15:53.385Z,36.53
2024-02-09T16:18:23.701Z,37.60
2024-02-09T16:20:54.243Z,35.10
2024-02-09T16:23:23.661Z,33.88
2024-02-09T16:26:02.455Z,34.33
2024-02-09T16:28:36.903Z,33.20
2024-02-09T16:31:10.407Z,30.27
2024-02-09T16:33:39.948Z,32.47
2024-02-09T16:36:09.914Z,29.88
2024-02-09T16:38:40.304Z,29.73
2024-02-09T16:41:14.112Z,30.02
2024-02-09T16:43:48.151Z,32.63
2024-02-09T16:46:18.223Z,28.77
2024-02-09T16:48:48.670Z,25.00
2024-02-09T16:51:18.918Z,28.27
2024-02-09T16:53:48.436Z,24.58
2024-02-09T16:56:21.640Z,22.77
2024-02-09T16:58:52.392Z,22.30
2024-02-09T17:01:26.699Z,24.75
2024-02-09T17:03:59.288Z,19.23
2024-02-09T17:06:30.277Z,20.75
2024-02-09T17:09:00.827Z,19.73
2024-02-09T17:11:31.561Z,15.98
2024-02-09T17:14:05.683Z,19.00
2024-02-09T17:16:41.898Z,19.75
2024-02-09T17:19:17.330Z,21.75
2024-02-09T17:21:48.092Z,17.27
2024-02-09T17:24:20.020Z,16.45
2024-02-09T17:26:59.486Z,17.10
2024-02-09T17:29:33.515Z,13.57
2024-02-09T17:32:02.575Z,16.50
2024-02-09T17:34:43.296Z,14.05
2024-02-09T17:37:13.509Z,16.58
2024-02-09T17:39:45.483Z,18.83
2024-02-09T17:42:17.263Z,14.63
2024-02-09T17:44:51.332Z,20.85
2024-02-09T17:47:22.645Z,11.43
2024-02-09T17:49:53.735Z,16.65
2024-02-09T17:52:25.993Z,14.65
2024-02-09T17:54:58.800Z,15.00
2024-02-09T17:57:30.717Z,17.02
2024-02-09T18:00:01.043Z,17.20
2024-02-09T18:05:01.106Z,16.23
2024-02-09T18:07:32.602Z,17.00
2024-02-09T18:10:02.438Z,15.65
2024-02-09T18:12:35.002Z,25.42
2024-02-09T18:15:07.001Z,18.88
2024-02-09T18:17:36.101Z,13.50
2024-02-09T18:20:11.933Z,21.83
2024-02-09T18:22:42.519Z,20.85
2024-02-09T18:25:16.967Z,19.98
2024-02-09T18:27:47.776Z,16.88
2024-02-09T18:30:23.801Z,20.20
2024-02-09T18:32:56.885Z,15.52
2024-02-09T18:35:30.787Z,18.55
2024-02-09T18:38:00.801Z,19.95
2024-02-09T18:40:32.454Z,17.77
2024-02-09T18:43:05.719Z,16.45
2024-02-09T18:45:38.026Z,17.23
2024-02-09T18:48:09.182Z,19.10
2024-02-09T18:50:41.076Z,19.42
2024-02-09T18:53:16.597Z,22.27
2024-02-09T18:55:52.115Z,19.85
2024-02-09T18:58:40.484Z,18.63
2024-02-09T19:01:20.104Z,21.95
2024-02-09T19:03:55.297Z,14.50
2024-02-09T19:06:32.442Z,20.30
2024-02-09T19:09:03.221Z,19.73
2024-02-09T19:11:36.547Z,17.20
2024-02-09T19:14:11.284Z,16.85
2024-02-09T19:16:47.962Z,19.20
2024-02-09T19:19:20.776Z,14.02
2024-02-09T19:22:00.757Z,17.38
2024-02-09T19:24:31.584Z,19.60
2024-02-09T19:27:08.902Z,20.13
2024-02-09T19:29:43.787Z,16.13
2024-02-09T19:32:17.348Z,14.45
2024-02-09T19:34:57.111Z,16.33
2024-02-09T19:37:30.960Z,22.63
2024-02-09T19:40:04.914Z,16.70
2024-02-09T19:42:40.577Z,17.95
2024-02-09T19:45:19.760Z,17.63
2024-02-09T19:47:55.376Z,20.05
2024-02-09T19:50:29.332Z,20.05
2024-02-09T19:53:08.450Z,16.65
2024-02-09T19:55:43.895Z,18.65
2024-02-09T19:58:22.515Z,16.58
2024-02-09T20:01:00.581Z,20.50
2024-02-09T20:03:30.410Z,16.17
2024-02-09T20:08:34.713Z,19.63
2024-02-09T20:11:06.487Z,18.55
2024-02-09T20:13:36.935Z,15.73
2024-02-09T20:16:12.094Z,16.52
2024-02-09T20:18:42.851Z,20.00
2024-02-09T20:21:14.742Z,16.55
2024-02-09T20:23:46.230Z,13.98
2024-02-09T20:26:16.664Z,15.57
2024-02-09T20:28:50.123Z,16.67
2024-02-09T20:31:24.027Z,20.13
2024-02-09T20:33:54.682Z,15.77
2024-02-09T20:36:35.031Z,15.20
2024-02-09T20:39:06.432Z,16.17
2024-02-09T20:41:38.130Z,11.57
2024-02-09T20:44:13.598Z,19.05
2024-02-09T20:46:48.115Z,13.35
2024-02-09T20:49:21.059Z,19.17
2024-02-09T20:51:57.166Z,20.35
2024-02-09T20:54:29.037Z,15.65
2024-02-09T20:57:01.805Z,13.80
2024-02-09T20:59:41.625Z,18.67
2024-02-09T21:02:16.226Z,13.05
2024-02-09T21:04:50.718Z,14.52
2024-02-09T21:07:20.596Z,20.17
2024-02-09T21:09:53.914Z,19.95
2024-02-09T21:12:25.169Z,16.48
2024-02-09T21:14:56.219Z,16.00
2024-02-09T21:17:35.893Z,16.45
2024-02-09T21:20:12.617Z,15.93
2024-02-09T21:22:46.004Z,18.27
2024-02-09T21:25:21.066Z,19.85
2024-02-09T21:27:52.817Z,16.85
2024-02-09T21:30:25.747Z,15.13
2024-02-09T21:33:03.196Z,16.65
2024-02-09T21:35:33.076Z,12.82
2024-02-09T21:38:15.647Z,19.08
2024-02-09T21:41:11.372Z,16.75
2024-02-09T21:43:46.081Z,18.20
2024-02-09T21:46:31.022Z,14.77
2024-02-09T21:49:23.628Z,14.13
2024-02-09T21:52:02.519Z,13.93
2024-02-09T21:54:43.913Z,19.50
2024-02-09T21:57:17.441Z,18.88
2024-02-09T21:59:49.761Z,16.38
2024-02-09T22:02:21.690Z,16.65
2024-02-09T22:04:54.395Z,15.35
2024-02-09T22:07:23.673Z,13.43
2024-02-09T22:09:53.182Z,15.57
2024-02-09T22:12:27.599Z,16.90
2024-02-09T22:15:01.323Z,18.88
2024-02-09T22:17:33.621Z,22.05
2024-02-09T22:20:12.997Z,18.30
2024-02-09T22:25:22.575Z,17.35
2024-02-09T22:27:58.464Z,16.98
2024-02-09T22:33:20.462Z,17.30
2024-02-09T22:35:54.582Z,18.55
2024-02-09T22:38:29.203Z,19.75
2024-02-09T22:41:21.806Z,18.52
2024-02-09T22:43:55.274Z,21.25
2024-02-09T22:46:42.367Z,19.38
2024-02-09T22:52:36.712Z,22.27
2024-02-09T22:55:21.399Z,19.58
2024-02-09T22:58:03.461Z,23.10
2024-02-09T23:01:02.562Z,15.93
2024-02-09T23:03:51.046Z,12.68
2024-02-09T23:06:38.656Z,21.33
2024-02-09T23:09:22.229Z,24.83
2024-02-09T23:12:03.633Z,20.95
2024-02-09T23:14:35.148Z,23.95
2024-02-09T23:17:05.787Z,20.48
2024-02-09T23:19:39.167Z,19.15
2024-02-09T23:22:10.100Z,19.15
2024-02-09T23:24:41.606Z,22.55
2024-02-09T23:27:22.280Z,26.85
2024-02-09T23:29:56.144Z,17.75
2024-02-09T23:32:27.894Z,17.92
2024-02-09T23:35:03.231Z,19.23
2024-02-09T23:37:32.399Z,19.95
2024-02-09T23:40:12.289Z,22.95
2024-02-09T23:42:53.224Z,18.98
2024-02-09T23:45:25.831Z,18.52
2024-02-09T23:47:54.813Z,21.48
2024-02-09T23:50:30.035Z,22.15
2024-02-09T23:53:04.717Z,19.98
2024-02-09T23:55:39.648Z,21.88
2024-02-09T23:58:12.489Z,20.02
